createdAt,value
2023-04-18T07:02:29.132Z,100225.03
2023-04-18T07:05:31.905Z,100220.28
2023-04-18T07:08:34.601Z,100227.16
2023-04-18T07:11:37.280Z,100221.91
2023-04-18T07:14:39.704Z,100222.09
2023-04-18T07:17:43.846Z,100221.59
2023-04-18T07:20:46.042Z,100229.09
2023-04-18T07:28:09.048Z,100227.16
2023-04-18T07:31:14.434Z,100222.44
2023-04-18T07:34:18.432Z,100234.22
2023-04-18T07:37:21.514Z,100232.34
2023-04-18T07:40:24.010Z,100242.31
2023-04-18T07:43:26.931Z,100231.38
2023-04-18T07:46:29.588Z,100244.19
2023-04-18T07:49:33.714Z,100238.19
2023-04-18T07:52:37.359Z,100234.16
2023-04-18T07:55:41.023Z,100234.50
2023-04-18T07:58:43.439Z,100244.03
2023-04-18T08:01:46.084Z,100253.47
2023-04-18T08:04:52.227Z,100250.00
2023-04-18T08:07:54.884Z,100248.53
2023-04-18T08:10:57.546Z,100246.53
2023-04-18T08:13:59.974Z,100250.00
2023-04-18T08:17:02.726Z,100257.50
2023-04-18T08:20:07.535Z,100252.19
2023-04-18T08:23:12.994Z,100251.72
2023-04-18T08:26:15.973Z,100254.91
2023-04-18T08:29:18.682Z,100258.84
2023-04-18T08:32:21.059Z,100259.94
2023-04-18T08:35:25.209Z,100261.81
2023-04-18T08:38:27.486Z,100265.72
2023-04-18T08:41:30.849Z,100257.09
2023-04-18T08:44:33.317Z,100262.62
2023-04-18T08:47:36.085Z,100267.09
2023-04-18T08:50:40.014Z,100271.13
2023-04-18T08:53:44.678Z,100259.03
2023-04-18T08:56:47.852Z,100263.78
2023-04-18T08:59:51.169Z,100257.00
2023-04-18T09:02:57.046Z,100261.91
2023-04-18T09:06:12.530Z,100259.97
2023-04-18T09:09:15.193Z,100266.00
2023-04-18T09:12:19.526Z,100261.25
2023-04-18T09:15:23.610Z,100254.41
2023-04-18T09:18:26.449Z,100258.16
2023-04-18T09:21:30.255Z,100266.06
2023-04-18T09:24:34.355Z,100266.94
2023-04-18T09:27:36.584Z,100260.19
2023-04-18T09:30:39.902Z,100267.03
2023-04-18T09:33:44.878Z,100268.91
2023-04-18T09:36:49.009Z,100254.66
2023-04-18T09:39:51.255Z,100262.84
2023-04-18T09:42:57.015Z,100261.00
2023-04-18T09:46:01.049Z,100261.16
2023-04-18T09:49:03.781Z,100263.91
2023-04-18T09:52:07.790Z,100267.37
2023-04-18T09:55:12.057Z,100263.44
2023-04-18T09:58:14.826Z,100261.16
2023-04-18T10:01:17.502Z,100268.28
2023-04-18T10:04:20.536Z,100264.34
2023-04-18T10:07:24.440Z,100263.59
2023-04-18T10:10:27.158Z,100264.97
2023-04-18T10:13:29.568Z,100276.59
2023-04-18T10:16:34.107Z,100278.22
2023-04-18T10:19:37.700Z,100283.31
2023-04-18T10:22:41.730Z,100278.84
2023-04-18T10:25:48.549Z,100280.87
2023-04-18T10:28:53.321Z,100276.56
2023-04-18T10:31:56.342Z,100270.53
2023-04-18T10:35:00.580Z,100260.50
2023-04-18T10:38:04.460Z,100257.69
2023-04-18T10:41:17.514Z,100264.28
2023-04-18T10:44:22.018Z,100253.59
2023-04-18T10:47:24.949Z,100267.19
2023-04-18T10:50:27.442Z,100262.47
2023-04-18T10:53:31.601Z,100272.38
2023-04-18T10:56:34.053Z,100274.72
2023-04-18T10:59:38.112Z,100268.97
2023-04-18T11:02:40.500Z,100269.91
2023-04-18T11:05:43.284Z,100259.88
2023-04-18T11:08:47.883Z,100260.50
2023-04-18T11:12:03.362Z,100273.50
2023-04-18T11:15:10.793Z,100262.47
2023-04-18T11:18:13.741Z,100266.00
2023-04-18T11:21:16.429Z,100275.31
2023-04-18T11:24:32.877Z,100274.56
2023-04-18T11:27:35.343Z,100272.97
2023-04-18T11:30:38.574Z,100272.16
2023-04-18T11:33:41.074Z,100263.16
2023-04-18T11:36:43.762Z,100275.41
2023-04-18T11:39:47.554Z,100272.13
2023-04-18T11:42:50.387Z,100271.53
2023-04-18T11:45:56.592Z,100274.72
2023-04-18T11:48:59.342Z,100279.56
2023-04-18T11:52:01.786Z,100274.91
2023-04-18T11:55:13.693Z,100261.69
2023-04-18T11:58:16.546Z,100256.94
2023-04-18T12:01:19.669Z,100266.41
2023-04-18T12:04:22.772Z,100271.97
2023-04-18T12:07:38.542Z,100267.44
2023-04-18T12:10:47.515Z,100262.59
2023-04-18T12:13:49.987Z,100262.97
2023-04-18T12:16:52.626Z,100270.44
2023-04-18T12:19:55.509Z,100268.59
2023-04-18T12:22:58.469Z,100267.56
2023-04-18T12:26:03.710Z,100265.47
2023-04-18T12:29:06.400Z,100267.69
2023-04-18T12:32:08.876Z,100258.88
2023-04-18T12:35:11.822Z,100272.84
2023-04-18T12:38:14.346Z,100268.78
2023-04-18T12:41:18.461Z,100262.28
2023-04-18T12:44:20.996Z,100270.91
2023-04-18T12:47:23.736Z,100273.81
2023-04-18T12:50:26.480Z,100264.06
2023-04-18T12:53:29.381Z,100265.59
2023-04-18T12:56:33.121Z,100279.72
2023-04-18T12:59:35.843Z,100267.59
2023-04-18T13:02:39.088Z,100264.19
2023-04-18T13:05:41.686Z,100264.06
2023-04-18T13:08:44.502Z,100261.94
2023-04-18T13:11:49.690Z,100261.13
2023-04-18T13:14:52.082Z,100264.94
2023-04-18T13:17:55.992Z,100273.22
2023-04-18T13:20:58.380Z,100275.94
2023-04-18T13:24:01.113Z,100272.03
2023-04-18T13:27:10.296Z,100280.81
2023-04-18T13:30:13.398Z,100280.28
2023-04-18T13:33:15.920Z,100277.47
2023-04-18T13:36:18.721Z,100273.84
2023-04-18T13:39:21.611Z,100272.16
2023-04-18T13:42:25.691Z,100273.00
2023-04-18T13:45:27.859Z,100273.91
2023-04-18T13:48:30.485Z,100262.75
2023-04-18T13:51:33.252Z,100264.84
2023-04-18T13:54:37.339Z,100268.78
2023-04-18T13:57:41.158Z,100270.03
2023-04-18T14:00:43.818Z,100273.84
2023-04-18T14:03:47.517Z,100272.13
2023-04-18T14:06:50.381Z,100264.66
2023-04-18T14:09:54.035Z,100259.25
2023-04-18T14:12:57.907Z,100262.19
2023-04-18T14:16:00.995Z,100251.13
2023-04-18T14:19:03.562Z,100268.00
2023-04-18T14:22:07.811Z,100265.53
2023-04-18T14:25:10.372Z,100270.00
2023-04-18T14:28:14.599Z,100259.34
2023-04-18T14:31:17.224Z,100270.87
2023-04-18T14:34:19.944Z,100254.88
2023-04-18T14:37:22.365Z,100266.88
2023-04-18T14:40:25.123Z,100262.53
2023-04-18T14:43:28.988Z,100270.38
2023-04-18T14:46:31.769Z,100266.16
2023-04-18T14:49:34.271Z,100255.03
2023-04-18T14:52:36.941Z,100256.56
2023-04-18T14:55:39.388Z,100262.47
2023-04-18T14:58:43.920Z,100262.38
2023-04-18T15:01:46.506Z,100262.03
2023-04-18T15:04:49.912Z,100269.69
2023-04-18T15:07:52.398Z,100279.12
2023-04-18T15:10:55.021Z,100261.34
2023-04-18T15:13:58.747Z,100256.66
2023-04-18T15:17:02.864Z,100255.75
2023-04-18T15:20:08.217Z,100261.22
2023-04-18T15:23:13.842Z,100267.41
2023-04-18T15:26:16.488Z,100256.84
2023-04-18T15:29:20.891Z,100258.69
2023-04-18T15:32:23.473Z,100251.91
2023-04-18T15:35:26.821Z,100254.50
2023-04-18T15:38:31.547Z,100251.53
2023-04-18T15:41:36.226Z,100253.63
2023-04-18T15:44:40.040Z,100254.19
2023-04-18T15:47:42.945Z,100253.16
2023-04-18T15:50:50.167Z,100256.75
2023-04-18T15:53:52.852Z,100251.47
2023-04-18T15:56:55.571Z,100250.34
2023-04-18T15:59:59.780Z,100253.06
